Time;durP1;ratioP1;P1;durP2;ratioP2;P2;SDS_P1;SDS_P2;PMS_P1;PMS_P2;Temp;Humidity;BMP_temperature;BMP_pressure;BME280_temperature;BME280_humidity;BME280_pressure;Samples;Min_cycle;Max_cycle;Signal;HPM_P1;HPM_P2
2022/01/04 00:01:32;;;;;;;2.78;0.88;;;;;;;;;;4925639;29;20052;-66
2022/01/04 00:03:59;;;;;;;1.77;1.20;;;;;;;;;;4924813;29;20048;-66
2022/01/04 00:06:25;;;;;;;2.38;0.90;;;;;;;;;;4925272;29;20647;-66
2022/01/04 00:08:58;;;;;;;1.48;1.20;;;;;;;;;;4926307;29;20491;-66
2022/01/04 00:11:42;;;;;;;;;;;;;;;;;;4928911;29;20051;-65
2022/01/04 00:14:09;;;;;;;1.23;0.73;;;;;;;;;;4924993;29;20378;-66
2022/01/04 00:16:36;;;;;;;1.60;1.05;;;;;;;;;;4923616;29;20488;-67
2022/01/04 00:19:03;;;;;;;1.85;1.20;;;;;;;;;;4926032;29;20066;-66
2022/01/04 00:21:29;;;;;;;1.55;0.90;;;;;;;;;;4925933;29;20048;-65
2022/01/04 00:23:56;;;;;;;1.77;1.00;;;;;;;;;;4928519;29;20044;-66
2022/01/04 00:26:22;;;;;;;3.10;1.08;;;;;;;;;;4925209;29;20107;-66
2022/01/04 00:28:49;;;;;;;2.05;1.27;;;;;;;;;;4924348;29;20047;-65
2022/01/04 00:31:16;;;;;;;3.42;1.00;;;;;;;;;;4924970;29;20111;-66
2022/01/04 00:33:42;;;;;;;1.58;1.10;;;;;;;;;;4925832;29;20515;-69
2022/01/04 00:36:09;;;;;;;1.10;0.82;;;;;;;;;;4921549;29;20052;-66
2022/01/04 00:38:36;;;;;;;1.60;0.80;;;;;;;;;;4926460;29;20103;-66
2022/01/04 00:41:03;;;;;;;2.00;1.02;;;;;;;;;;4923923;29;20063;-66
2022/01/04 00:43:30;;;;;;;3.33;1.33;;;;;;;;;;4921417;29;20103;-66
2022/01/04 00:45:57;;;;;;;2.63;0.73;;;;;;;;;;4923456;29;20094;-67
2022/01/04 00:50:51;;;;;;;1.15;0.70;;;;;;;;;;4923889;29;20047;-65
2022/01/04 00:53:17;;;;;;;0.82;0.60;;;;;;;;;;4924359;29;20051;-66
2022/01/04 00:55:44;;;;;;;2.40;0.73;;;;;;;;;;4925593;29;20103;-66
2022/01/04 00:58:11;;;;;;;1.52;0.90;;;;;;;;;;4924000;29;20111;-66
2022/01/04 01:00:38;;;;;;;4.55;0.75;;;;;;;;;;4924487;29;20055;-66
2022/01/04 01:03:06;;;;;;;1.58;0.70;;;;;;;;;;4925380;29;20058;-66
2022/01/04 01:05:33;;;;;;;1.10;0.70;;;;;;;;;;4923071;29;20087;-66
2022/01/04 01:08:00;;;;;;;1.38;0.60;;;;;;;;;;4924077;29;20110;-67
2022/01/04 01:10:49;;;;;;;1.70;0.70;;;;;;;;;;4927255;29;20114;-66
2022/01/04 01:13:16;;;;;;;2.25;0.80;;;;;;;;;;4923795;29;20118;-65
2022/01/04 01:15:45;;;;;;;0.75;0.57;;;;;;;;;;4929410;29;20044;-67
2022/01/04 01:18:14;;;;;;;3.22;0.75;;;;;;;;;;4928047;29;20142;-67
2022/01/04 01:20:40;;;;;;;1.38;0.52;;;;;;;;;;4929151;29;20096;-66
2022/01/04 01:23:08;;;;;;;1.25;0.85;;;;;;;;;;4927334;29;20496;-66
2022/01/04 01:25:34;;;;;;;2.78;0.90;;;;;;;;;;4927336;29;20107;-66
2022/01/04 01:28:01;;;;;;;1.40;0.70;;;;;;;;;;4928756;29;20111;-66
2022/01/04 01:30:29;;;;;;;3.70;0.95;;;;;;;;;;4929695;29;20573;-66
2022/01/04 01:32:56;;;;;;;2.00;0.80;;;;;;;;;;4937918;29;20401;-66
2022/01/04 01:35:22;;;;;;;3.22;0.80;;;;;;;;;;4938117;29;20542;-66
2022/01/04 01:37:49;;;;;;;1.08;0.70;;;;;;;;;;4937803;29;20395;-66
2022/01/04 01:40:15;;;;;;;0.82;0.63;;;;;;;;;;4937988;29;20056;-66
2022/01/04 01:42:42;;;;;;;4.40;0.80;;;;;;;;;;4936603;29;20467;-65
2022/01/04 01:45:10;;;;;;;0.93;0.70;;;;;;;;;;4937748;29;20052;-66
2022/01/04 01:47:38;;;;;;;1.70;0.70;;;;;;;;;;4926993;29;20427;-67
2022/01/04 01:50:05;;;;;;;3.17;0.65;;;;;;;;;;4918794;29;20048;-66
2022/01/04 01:52:32;;;;;;;1.40;0.77;;;;;;;;;;4918703;29;20052;-65
2022/01/04 01:54:59;;;;;;;1.92;0.68;;;;;;;;;;4918734;29;20507;-67
2022/01/04 01:57:25;;;;;;;2.50;0.70;;;;;;;;;;4925779;29;20051;-67
2022/01/04 01:59:52;;;;;;;1.52;0.90;;;;;;;;;;4918632;29;20048;-66
2022/01/04 02:02:18;;;;;;;2.53;1.02;;;;;;;;;;4933670;29;20079;-66
2022/01/04 02:04:45;;;;;;;2.05;0.90;;;;;;;;;;4937493;29;20048;-67
2022/01/04 02:07:12;;;;;;;0.82;0.80;;;;;;;;;;4930577;29;20048;-66
2022/01/04 02:09:43;;;;;;;4.80;1.23;;;;;;;;;;4917427;29;20170;-67
2022/01/04 02:12:10;;;;;;;1.70;0.90;;;;;;;;;;4918538;29;20060;-67
2022/01/04 02:14:36;;;;;;;1.95;0.90;;;;;;;;;;4918428;29;20060;-67
2022/01/04 02:17:03;;;;;;;2.22;0.90;;;;;;;;;;4918374;29;20107;-66
2022/01/04 02:19:35;;;;;;;2.05;1.00;;;;;;;;;;4918300;29;20598;-65
2022/01/04 02:22:02;;;;;;;1.30;0.80;;;;;;;;;;4918393;29;20119;-67
2022/01/04 02:24:28;;;;;;;1.00;0.90;;;;;;;;;;4917283;29;20108;-66
2022/01/04 02:26:55;;;;;;;1.73;1.00;;;;;;;;;;4921815;29;20044;-65
2022/01/04 02:29:21;;;;;;;1.77;0.93;;;;;;;;;;4937254;29;20047;-67
2022/01/04 02:32:35;;;;;;;1.27;1.10;;;;;;;;;;4936857;29;20059;-66
2022/01/04 02:35:03;;;;;;;2.42;0.80;;;;;;;;;;4937202;29;20498;-68
2022/01/04 02:37:30;;;;;;;1.08;0.80;;;;;;;;;;4936436;29;20419;-66
2022/01/04 02:39:57;;;;;;;1.67;0.88;;;;;;;;;;4936934;29;20111;-65
2022/01/04 02:42:24;;;;;;;1.60;1.10;;;;;;;;;;4937025;29;20103;-66
2022/01/04 02:44:50;;;;;;;1.95;0.80;;;;;;;;;;4935583;29;20111;-67
2022/01/04 02:47:17;;;;;;;2.05;1.15;;;;;;;;;;4935290;29;20150;-65
2022/01/04 02:49:44;;;;;;;1.15;1.05;;;;;;;;;;4918985;29;20052;-65
2022/01/04 02:52:11;;;;;;;2.83;1.20;;;;;;;;;;4936734;29;20056;-65
2022/01/04 02:54:37;;;;;;;5.13;1.30;;;;;;;;;;4936518;29;20075;-65
2022/01/04 02:57:04;;;;;;;1.23;0.98;;;;;;;;;;4936657;29;20392;-65
2022/01/04 02:59:31;;;;;;;0.90;0.90;;;;;;;;;;4936524;29;20075;-67
2022/01/04 03:01:58;;;;;;;2.60;1.17;;;;;;;;;;4936464;29;20056;-65
2022/01/04 03:04:25;;;;;;;1.27;0.93;;;;;;;;;;4936425;29;20056;-68
2022/01/04 03:06:52;;;;;;;1.40;1.10;;;;;;;;;;4936452;29;20106;-66
2022/01/04 03:09:18;;;;;;;1.48;0.98;;;;;;;;;;4936511;29;20056;-66
2022/01/04 03:11:45;;;;;;;3.70;1.20;;;;;;;;;;4936314;29;20127;-67
2022/01/04 03:14:11;;;;;;;1.75;1.13;;;;;;;;;;4936315;29;20114;-66
2022/01/04 03:16:38;;;;;;;2.00;1.20;;;;;;;;;;4936334;29;20428;-67
2022/01/04 03:19:07;;;;;;;3.22;1.13;;;;;;;;;;4936226;29;20055;-66
2022/01/04 03:21:34;;;;;;;2.28;0.98;;;;;;;;;;4936240;29;20467;-66
2022/01/04 03:24:02;;;;;;;1.73;1.00;;;;;;;;;;4935932;29;20759;-66
2022/01/04 03:26:29;;;;;;;1.98;1.00;;;;;;;;;;4936076;29;20079;-66
2022/01/04 03:28:56;;;;;;;1.77;1.50;;;;;;;;;;4935995;29;20571;-66
2022/01/04 03:31:23;;;;;;;1.30;1.00;;;;;;;;;;4934773;29;20095;-66
2022/01/04 03:33:50;;;;;;;1.95;0.80;;;;;;;;;;4935804;29;20052;-66
2022/01/04 03:36:20;;;;;;;1.98;1.20;;;;;;;;;;4935544;29;20052;-66
2022/01/04 03:38:48;;;;;;;1.25;1.00;;;;;;;;;;4935842;29;20052;-66
2022/01/04 03:41:16;;;;;;;2.17;1.20;;;;;;;;;;4935724;29;20103;-66
2022/01/04 03:43:43;;;;;;;2.97;1.02;;;;;;;;;;4935671;29;20052;-66
2022/01/04 03:46:09;;;;;;;2.88;1.10;;;;;;;;;;4918091;29;20044;-66
2022/01/04 03:48:37;;;;;;;1.60;1.10;;;;;;;;;;4916684;29;20056;-66
2022/01/04 03:51:04;;;;;;;1.45;0.95;;;;;;;;;;4916652;29;20059;-66
2022/01/04 03:53:31;;;;;;;2.55;1.05;;;;;;;;;;4916564;29;20055;-66
2022/01/04 03:55:57;;;;;;;1.38;1.20;;;;;;;;;;4932204;29;20401;-67
2022/01/04 03:58:24;;;;;;;1.88;1.30;;;;;;;;;;4924400;29;20048;-66
2022/01/04 04:00:50;;;;;;;1.58;0.98;;;;;;;;;;4916374;29;20051;-67
2022/01/04 04:03:19;;;;;;;2.13;1.15;;;;;;;;;;4916425;29;20531;-66
2022/01/04 04:05:45;;;;;;;3.17;1.38;;;;;;;;;;4929751;29;20099;-65
2022/01/04 04:08:12;;;;;;;5.20;1.15;;;;;;;;;;4935429;29;20051;-65
2022/01/04 04:10:39;;;;;;;1.73;1.00;;;;;;;;;;4935361;29;20108;-66
2022/01/04 04:13:05;;;;;;;1.55;1.02;;;;;;;;;;4935143;29;20458;-67
2022/01/04 04:15:32;;;;;;;2.83;0.90;;;;;;;;;;4935260;29;20051;-66
2022/01/04 04:17:59;;;;;;;2.22;1.10;;;;;;;;;;4935095;29;20052;-66
2022/01/04 04:20:25;;;;;;;3.47;1.25;;;;;;;;;;4935361;29;20052;-67
2022/01/04 04:22:52;;;;;;;2.78;1.10;;;;;;;;;;4934308;29;20474;-66
2022/01/04 04:25:19;;;;;;;1.25;1.05;;;;;;;;;;4935083;29;20106;-68
2022/01/04 04:27:45;;;;;;;3.45;1.20;;;;;;;;;;4933672;29;20075;-66
2022/01/04 04:30:12;;;;;;;1.35;1.00;;;;;;;;;;4935095;29;20093;-66
2022/01/04 04:32:39;;;;;;;1.20;0.77;;;;;;;;;;4934170;29;20466;-68
2022/01/04 04:35:06;;;;;;;1.77;0.90;;;;;;;;;;4934340;29;20052;-68
2022/01/04 04:37:32;;;;;;;1.55;0.80;;;;;;;;;;4934872;29;20451;-68
2022/01/04 04:39:59;;;;;;;1.80;1.15;;;;;;;;;;4935135;29;20052;-69
2022/01/04 04:42:25;;;;;;;1.75;0.88;;;;;;;;;;4920387;29;20052;-68
2022/01/04 04:44:57;;;;;;;1.93;0.70;;;;;;;;;;4915854;29;20056;-68
2022/01/04 04:47:24;;;;;;;0.98;0.80;;;;;;;;;;4915532;29;20048;-68
2022/01/04 04:49:52;;;;;;;2.22;1.13;;;;;;;;;;4915510;29;20048;-68
2022/01/04 04:52:19;;;;;;;1.63;0.70;;;;;;;;;;4915774;29;20472;-68
2022/01/04 04:54:46;;;;;;;1.35;0.90;;;;;;;;;;4915532;29;20464;-67
2022/01/04 04:57:12;;;;;;;0.98;0.50;;;;;;;;;;4915462;29;20048;-68
2022/01/04 04:59:39;;;;;;;1.25;0.70;;;;;;;;;;4915600;29;20198;-67
2022/01/04 05:02:07;;;;;;;0.75;0.70;;;;;;;;;;4915433;29;20052;-67
2022/01/04 05:04:35;;;;;;;0.88;0.70;;;;;;;;;;4915571;29;20048;-67
2022/01/04 05:07:01;;;;;;;0.75;0.73;;;;;;;;;;4915607;29;20060;-68
2022/01/04 05:09:28;;;;;;;2.85;0.75;;;;;;;;;;4914356;29;20464;-67
2022/01/04 05:11:55;;;;;;;2.00;0.70;;;;;;;;;;4914805;29;20401;-68
2022/01/04 05:14:21;;;;;;;2.25;0.80;;;;;;;;;;4915550;29;20052;-68
2022/01/04 05:16:48;;;;;;;1.15;0.82;;;;;;;;;;4914487;29;20564;-68
2022/01/04 05:19:16;;;;;;;0.73;0.70;;;;;;;;;;4898888;29;20472;-68
2022/01/04 05:21:42;;;;;;;1.02;0.73;;;;;;;;;;4922426;29;20043;-68
2022/01/04 05:24:09;;;;;;;0.98;0.68;;;;;;;;;;4934985;29;20080;-67
2022/01/04 05:26:36;;;;;;;2.05;0.90;;;;;;;;;;4934525;29;20044;-67
2022/01/04 05:29:02;;;;;;;1.85;0.80;;;;;;;;;;4934873;29;20118;-67
2022/01/04 05:31:29;;;;;;;0.80;0.80;;;;;;;;;;4934442;29;20601;-67
2022/01/04 05:33:56;;;;;;;0.95;0.70;;;;;;;;;;4935453;29;20107;-68
2022/01/04 05:36:22;;;;;;;1.70;0.80;;;;;;;;;;4935600;29;20051;-67
2022/01/04 05:38:49;;;;;;;0.75;0.70;;;;;;;;;;4935619;29;20060;-68
2022/01/04 05:41:16;;;;;;;1.08;0.77;;;;;;;;;;4929876;29;20496;-68
2022/01/04 05:43:42;;;;;;;1.40;0.70;;;;;;;;;;4916247;29;20052;-68
2022/01/04 05:46:09;;;;;;;1.67;0.88;;;;;;;;;;4916489;29;20048;-66
2022/01/04 05:48:35;;;;;;;1.85;0.93;;;;;;;;;;4916949;29;20098;-68
2022/01/04 05:51:02;;;;;;;3.13;0.90;;;;;;;;;;4917087;29;20068;-68
2022/01/04 05:53:31;;;;;;;1.63;1.00;;;;;;;;;;4916331;29;20052;-68
2022/01/04 05:55:57;;;;;;;1.80;0.90;;;;;;;;;;4916361;29;20495;-68
2022/01/04 05:58:24;;;;;;;1.70;0.90;;;;;;;;;;4915693;29;20044;-68
2022/01/04 06:00:51;;;;;;;1.77;0.80;;;;;;;;;;4919792;29;20098;-68
2022/01/04 06:03:17;;;;;;;1.15;0.90;;;;;;;;;;4918615;29;20060;-67
2022/01/04 06:05:44;;;;;;;1.33;0.88;;;;;;;;;;4918732;29;20052;-69
2022/01/04 06:08:12;;;;;;;2.58;0.93;;;;;;;;;;4918440;29;20123;-69
2022/01/04 06:10:40;;;;;;;0.80;0.80;;;;;;;;;;4925164;29;20052;-68
2022/01/04 06:15:38;;;;;;;1.70;0.90;;;;;;;;;;4937550;29;20060;-70
2022/01/04 06:18:04;;;;;;;1.45;1.35;;;;;;;;;;4937374;29;20094;-69
2022/01/04 06:20:31;;;;;;;2.15;1.00;;;;;;;;;;4932150;29;20059;-69
2022/01/04 06:22:58;;;;;;;1.38;0.70;;;;;;;;;;4901299;29;20103;-69
2022/01/04 06:25:25;;;;;;;1.60;0.80;;;;;;;;;;4918335;29;20503;-69
2022/01/04 06:27:52;;;;;;;0.95;0.93;;;;;;;;;;4918168;29;20056;-68
2022/01/04 06:30:22;;;;;;;2.13;1.20;;;;;;;;;;4917413;29;20052;-68
2022/01/04 06:32:50;;;;;;;2.80;1.33;;;;;;;;;;4917853;29;20523;-68
2022/01/04 06:35:17;;;;;;;1.42;1.10;;;;;;;;;;4918203;29;20052;-68
2022/01/04 06:37:45;;;;;;;1.52;1.17;;;;;;;;;;4918011;29;20048;-68
2022/01/04 06:40:12;;;;;;;2.35;1.10;;;;;;;;;;4920444;29;20074;-68
2022/01/04 06:42:39;;;;;;;1.90;1.15;;;;;;;;;;4936676;29;20055;-67
2022/01/04 06:45:06;;;;;;;1.40;0.95;;;;;;;;;;4937022;29;20127;-68
2022/01/04 06:47:32;;;;;;;3.15;1.35;;;;;;;;;;4936879;29;20047;-67
2022/01/04 06:49:59;;;;;;;1.33;1.10;;;;;;;;;;4934946;29;20091;-69
2022/01/04 06:52:26;;;;;;;3.15;1.13;;;;;;;;;;4933839;29;20110;-68
2022/01/04 06:54:52;;;;;;;1.40;0.90;;;;;;;;;;4935035;29;20052;-68
2022/01/04 06:57:22;;;;;;;3.58;1.40;;;;;;;;;;4935060;29;20099;-68
2022/01/04 06:59:49;;;;;;;2.42;1.80;;;;;;;;;;4935037;29;20051;-68
2022/01/04 07:02:15;;;;;;;3.15;1.70;;;;;;;;;;4934865;29;20478;-68
2022/01/04 07:04:42;;;;;;;1.38;1.00;;;;;;;;;;4916540;29;20052;-68
2022/01/04 07:07:09;;;;;;;1.60;1.20;;;;;;;;;;4914692;29;20055;-68
2022/01/04 07:09:35;;;;;;;3.08;2.00;;;;;;;;;;4915958;29;20119;-68
2022/01/04 07:12:03;;;;;;;2.10;1.30;;;;;;;;;;4915462;29;20111;-66
2022/01/04 07:14:29;;;;;;;1.73;1.27;;;;;;;;;;4919624;29;20102;-66
2022/01/04 07:16:56;;;;;;;2.50;0.90;;;;;;;;;;4915184;29;20119;-68
2022/01/04 07:19:23;;;;;;;2.70;1.10;;;;;;;;;;4915451;29;20060;-68
2022/01/04 07:21:49;;;;;;;1.50;1.00;;;;;;;;;;4915557;29;20052;-67
2022/01/04 07:24:16;;;;;;;1.70;1.02;;;;;;;;;;4923859;29;20048;-67
2022/01/04 07:26:42;;;;;;;3.50;1.00;;;;;;;;;;4935997;29;20087;-68
2022/01/04 07:29:09;;;;;;;3.38;2.08;;;;;;;;;;4934700;29;20502;-68
2022/01/04 07:31:36;;;;;;;5.80;2.95;;;;;;;;;;4933527;29;20051;-66
2022/01/04 07:34:02;;;;;;;7.15;3.78;;;;;;;;;;4934003;29;20056;-67
2022/01/04 07:36:31;;;;;;;2.60;1.73;;;;;;;;;;4929494;29;20048;-67
2022/01/04 07:38:58;;;;;;;1.95;1.40;;;;;;;;;;4915225;29;20151;-67
2022/01/04 07:41:25;;;;;;;4.80;1.58;;;;;;;;;;4923311;29;20427;-67
2022/01/04 07:43:52;;;;;;;1.90;1.23;;;;;;;;;;4937217;29;20028;-64
2022/01/04 07:46:19;;;;;;;3.55;1.20;;;;;;;;;;4921732;29;20056;-68
2022/01/04 07:48:47;;;;;;;2.38;1.10;;;;;;;;;;4918278;29;20044;-68
2022/01/04 07:51:15;;;;;;;1.75;0.98;;;;;;;;;;4907351;29;20831;-65
2022/01/04 07:53:42;;;;;;;2.13;1.20;;;;;;;;;;4907906;29;20045;-67
2022/01/04 07:56:08;;;;;;;2.08;1.20;;;;;;;;;;4915407;29;20068;-67
2022/01/04 07:58:35;;;;;;;1.00;0.90;;;;;;;;;;4917135;29;20586;-69
2022/01/04 08:01:02;;;;;;;2.83;0.98;;;;;;;;;;4916929;29;20456;-69
2022/01/04 08:03:29;;;;;;;1.15;0.80;;;;;;;;;;4909750;29;20048;-69
2022/01/04 08:05:56;;;;;;;3.30;0.80;;;;;;;;;;4916476;29;20044;-68
2022/01/04 08:08:22;;;;;;;1.55;0.70;;;;;;;;;;4915513;29;20102;-69
2022/01/04 08:10:50;;;;;;;2.95;1.80;;;;;;;;;;4905080;29;20112;-69
2022/01/04 08:13:17;;;;;;;2.08;1.10;;;;;;;;;;4905576;29;20127;-69
2022/01/04 08:15:43;;;;;;;1.70;0.93;;;;;;;;;;4902275;29;20049;-70
2022/01/04 08:18:10;;;;;;;3.35;0.80;;;;;;;;;;4919323;29;20076;-70
2022/01/04 08:20:37;;;;;;;3.95;0.90;;;;;;;;;;4922128;29;20052;-70
2022/01/04 08:23:03;;;;;;;3.28;0.82;;;;;;;;;;4903392;29;20060;-71
2022/01/04 08:25:30;;;;;;;1.10;0.70;;;;;;;;;;4904337;29;20107;-75
2022/01/04 08:27:57;;;;;;;1.10;0.80;;;;;;;;;;4904538;29;20048;-70
2022/01/04 08:30:24;;;;;;;4.25;0.93;;;;;;;;;;4904921;29;20100;-70
2022/01/04 08:32:53;;;;;;;1.13;0.65;;;;;;;;;;4906505;29;20473;-71
2022/01/04 08:35:19;;;;;;;1.52;0.60;;;;;;;;;;4907212;29;20048;-69
2022/01/04 08:37:46;;;;;;;1.35;0.70;;;;;;;;;;4906802;29;20095;-73
2022/01/04 08:40:13;;;;;;;1.42;0.80;;;;;;;;;;4909012;29;20052;-68
2022/01/04 08:42:39;;;;;;;3.80;1.02;;;;;;;;;;4906207;29;20120;-72
2022/01/04 08:45:07;;;;;;;1.52;0.65;;;;;;;;;;4901819;29;20441;-68
2022/01/04 08:47:34;;;;;;;2.08;0.80;;;;;;;;;;4903646;29;20054;-69
2022/01/04 08:50:01;;;;;;;1.20;0.65;;;;;;;;;;4902091;29;20056;-71
2022/01/04 08:52:27;;;;;;;2.63;1.05;;;;;;;;;;4901725;29;20061;-71
2022/01/04 08:54:58;;;;;;;2.05;0.70;;;;;;;;;;4903123;29;20052;-72
2022/01/04 08:57:25;;;;;;;1.23;0.82;;;;;;;;;;4901156;29;20504;-69
2022/01/04 08:59:54;;;;;;;1.25;0.90;;;;;;;;;;4902937;29;20060;-68
2022/01/04 09:02:22;;;;;;;2.08;0.80;;;;;;;;;;4908747;29;20048;-68
2022/01/04 09:04:49;;;;;;;0.70;0.63;;;;;;;;;;4918589;28;20051;-71
2022/01/04 09:07:16;;;;;;;1.55;0.65;;;;;;;;;;4921454;29;20056;-72
2022/01/04 09:09:43;;;;;;;2.30;0.80;;;;;;;;;;4921689;29;20051;-69
2022/01/04 09:12:32;;;;;;;1.17;0.80;;;;;;;;;;4921841;29;20044;-70
2022/01/04 09:15:16;;;;;;;0.73;0.65;;;;;;;;;;4920909;29;20463;-71
2022/01/04 09:20:28;;;;;;;3.22;0.80;;;;;;;;;;4920788;29;20056;-66
2022/01/04 09:22:56;;;;;;;1.05;0.93;;;;;;;;;;4920627;29;20464;-66
2022/01/04 09:25:23;;;;;;;1.88;0.60;;;;;;;;;;4924794;29;20071;-69
2022/01/04 09:27:50;;;;;;;1.08;0.90;;;;;;;;;;4921271;29;20126;-66
2022/01/04 09:30:17;;;;;;;1.70;0.80;;;;;;;;;;4919771;29;20052;-68
2022/01/04 09:32:43;;;;;;;1.25;0.80;;;;;;;;;;4928549;29;20096;-66
2022/01/04 09:35:12;;;;;;;1.17;0.63;;;;;;;;;;4936560;29;20055;-67
2022/01/04 09:37:39;;;;;;;3.53;1.00;;;;;;;;;;4938083;29;20095;-67
2022/01/04 09:40:08;;;;;;;2.15;0.70;;;;;;;;;;4940296;29;21129;-67
2022/01/04 09:42:37;;;;;;;3.72;0.75;;;;;;;;;;4936513;29;20056;-63
2022/01/04 09:45:05;;;;;;;1.77;0.73;;;;;;;;;;4937782;29;20055;-65
2022/01/04 09:47:32;;;;;;;0.70;0.70;;;;;;;;;;4942408;29;20142;-68
2022/01/04 09:49:58;;;;;;;3.38;0.77;;;;;;;;;;4936569;29;20116;-67
2022/01/04 09:52:25;;;;;;;1.20;1.00;;;;;;;;;;4939552;28;20142;-68
2022/01/04 09:54:53;;;;;;;0.60;0.50;;;;;;;;;;4937930;28;20603;-68
2022/01/04 09:57:20;;;;;;;2.40;1.10;;;;;;;;;;4934655;29;20047;-67
2022/01/04 09:59:49;;;;;;;1.02;0.60;;;;;;;;;;4942623;29;20103;-68
2022/01/04 10:02:18;;;;;;;1.95;0.57;;;;;;;;;;4940204;29;20494;-67
2022/01/04 10:04:46;;;;;;;2.00;0.80;;;;;;;;;;4941432;29;20103;-67
2022/01/04 10:07:13;;;;;;;0.98;0.70;;;;;;;;;;4940808;29;20051;-66
2022/01/04 10:09:45;;;;;;;1.00;0.70;;;;;;;;;;4940873;28;20468;-67
2022/01/04 10:12:14;;;;;;;1.35;0.80;;;;;;;;;;4939944;28;20177;-65
2022/01/04 10:14:44;;;;;;;1.00;0.70;;;;;;;;;;4943577;28;20574;-67
2022/01/04 10:17:32;;;;;;;1.48;0.85;;;;;;;;;;4939122;29;20181;-65
2022/01/04 10:20:00;;;;;;;1.45;1.02;;;;;;;;;;4938804;28;20052;-66
2022/01/04 10:22:35;;;;;;;2.72;1.45;;;;;;;;;;4938251;29;20507;-66
2022/01/04 10:25:02;;;;;;;2.03;0.98;;;;;;;;;;4928673;29;20059;-66
2022/01/04 10:27:39;;;;;;;1.88;1.00;;;;;;;;;;4939193;29;20470;-66
2022/01/04 10:30:28;;;;;;;1.55;1.00;;;;;;;;;;4940738;29;20054;-67
2022/01/04 10:32:58;;;;;;;1.05;0.60;;;;;;;;;;4939555;29;20051;-67
2022/01/04 10:35:39;;;;;;;0.70;0.70;;;;;;;;;;4940318;28;20052;-67
2022/01/04 10:38:27;;;;;;;1.15;0.90;;;;;;;;;;4941527;29;20098;-66
2022/01/04 10:41:07;;;;;;;1.52;1.27;;;;;;;;;;4941503;29;20047;-67
2022/01/04 10:43:37;;;;;;;2.20;1.00;;;;;;;;;;4936464;29;20115;-65
2022/01/04 10:46:05;;;;;;;2.28;0.93;;;;;;;;;;4923456;29;20048;-66
2022/01/04 10:48:34;;;;;;;1.90;0.75;;;;;;;;;;4931801;29;20060;-67
2022/01/04 10:51:10;;;;;;;1.90;1.00;;;;;;;;;;4935141;29;20126;-65
2022/01/04 10:53:36;;;;;;;2.40;1.10;;;;;;;;;;4938320;29;20051;-65
2022/01/04 10:56:05;;;;;;;1.50;1.17;;;;;;;;;;4940334;29;20047;-65
2022/01/04 10:58:35;;;;;;;2.80;1.88;;;;;;;;;;4940392;28;20047;-65
2022/01/04 11:01:16;;;;;;;1.85;1.10;;;;;;;;;;4931391;29;20067;-66
2022/01/04 11:03:48;;;;;;;2.05;1.33;;;;;;;;;;4924013;29;20055;-66
2022/01/04 11:06:19;;;;;;;1.88;0.90;;;;;;;;;;4922531;29;20075;-65
2022/01/04 11:08:46;;;;;;;1.60;0.93;;;;;;;;;;4932462;29;20309;-66
2022/01/04 11:11:13;;;;;;;1.88;1.00;;;;;;;;;;4929834;28;20052;-66
2022/01/04 11:13:39;;;;;;;3.88;0.98;;;;;;;;;;4929187;29;20142;-67
2022/01/04 11:16:06;;;;;;;2.20;1.02;;;;;;;;;;4923384;29;20059;-67
2022/01/04 11:18:34;;;;;;;4.65;1.00;;;;;;;;;;4922482;29;20048;-66
2022/01/04 11:21:01;;;;;;;1.00;0.90;;;;;;;;;;4923492;29;20464;-66
2022/01/04 11:23:31;;;;;;;1.30;1.00;;;;;;;;;;4923116;29;20052;-66
2022/01/04 11:25:59;;;;;;;2.33;1.08;;;;;;;;;;4925989;29;20051;-66
2022/01/04 11:28:26;;;;;;;3.33;1.23;;;;;;;;;;4921910;29;20048;-65
2022/01/04 11:31:18;;;;;;;2.65;1.00;;;;;;;;;;4923286;29;20118;-67
2022/01/04 11:34:06;;;;;;;3.22;0.93;;;;;;;;;;4924532;29;20185;-66
2022/01/04 11:36:40;;;;;;;1.27;0.93;;;;;;;;;;4929931;29;20457;-66
2022/01/04 11:39:25;;;;;;;1.88;1.40;;;;;;;;;;4921786;29;20095;-67
2022/01/04 11:41:52;;;;;;;1.83;1.00;;;;;;;;;;4924239;29;20451;-67
2022/01/04 11:44:20;;;;;;;2.70;1.50;;;;;;;;;;4924580;29;20048;-65
2022/01/04 11:47:05;;;;;;;2.70;1.00;;;;;;;;;;4925427;29;20502;-66
2022/01/04 11:49:36;;;;;;;2.33;1.00;;;;;;;;;;4924336;29;20060;-67
2022/01/04 11:52:09;;;;;;;2.80;0.90;;;;;;;;;;4923266;29;20521;-66
2022/01/04 11:54:36;;;;;;;5.45;1.40;;;;;;;;;;4923512;29;20048;-66
2022/01/04 11:57:08;;;;;;;2.17;0.82;;;;;;;;;;4927700;28;20087;-67
2022/01/04 11:59:42;;;;;;;2.80;1.05;;;;;;;;;;4925508;28;20052;-66
2022/01/04 12:02:28;;;;;;;2.78;1.27;;;;;;;;;;4927803;29;20047;-66
2022/01/04 12:04:56;;;;;;;1.83;1.17;;;;;;;;;;4928813;29;20047;-66
2022/01/04 12:07:38;;;;;;;1.88;1.20;;;;;;;;;;4922930;29;20051;-65
2022/01/04 12:10:20;;;;;;;2.55;1.20;;;;;;;;;;4923960;29;20095;-66
2022/01/04 12:13:10;;;;;;;3.08;1.48;;;;;;;;;;4924997;29;20108;-66
2022/01/04 12:15:36;;;;;;;1.10;0.90;;;;;;;;;;4937070;28;20102;-66
2022/01/04 12:18:03;;;;;;;4.55;2.45;;;;;;;;;;4936012;28;20420;-66
2022/01/04 12:20:51;;;;;;;1.70;1.15;;;;;;;;;;4938172;28;20048;-67
2022/01/04 12:23:27;;;;;;;2.60;1.17;;;;;;;;;;4933362;29;20094;-67
2022/01/04 12:26:06;;;;;;;3.63;1.02;;;;;;;;;;4936995;29;20142;-67
2022/01/04 12:28:37;;;;;;;4.13;1.10;;;;;;;;;;4932738;29;20047;-67
2022/01/04 12:31:13;;;;;;;5.20;1.35;;;;;;;;;;4940051;29;20056;-66
2022/01/04 12:33:41;;;;;;;1.50;1.40;;;;;;;;;;4937223;29;20072;-65
2022/01/04 12:36:09;;;;;;;2.35;1.50;;;;;;;;;;4930086;29;20054;-66
2022/01/04 12:38:36;;;;;;;1.65;1.40;;;;;;;;;;4937600;29;20099;-66
2022/01/04 12:41:06;;;;;;;10.45;4.05;;;;;;;;;;4932668;29;20067;-66
2022/01/04 12:43:32;;;;;;;6.97;2.17;;;;;;;;;;4937440;29;20530;-65
2022/01/04 12:46:01;;;;;;;2.33;1.55;;;;;;;;;;4937102;28;20055;-64
2022/01/04 12:48:48;;;;;;;2.83;1.70;;;;;;;;;;4931719;29;20050;-66
2022/01/04 12:51:37;;;;;;;3.83;1.88;;;;;;;;;;4935194;29;20074;-64
2022/01/04 12:54:07;;;;;;;3.78;1.70;;;;;;;;;;4931266;29;20133;-65
2022/01/04 12:56:49;;;;;;;4.72;1.95;;;;;;;;;;4931061;29;20055;-65
2022/01/04 12:59:37;;;;;;;3.22;1.80;;;;;;;;;;4933267;29;20044;-65
2022/01/04 13:02:28;;;;;;;2.03;1.52;;;;;;;;;;4921770;29;20064;-68
2022/01/04 13:04:57;;;;;;;5.00;1.95;;;;;;;;;;4926173;29;20059;-67
2022/01/04 13:07:27;;;;;;;4.53;1.80;;;;;;;;;;4921639;29;20123;-67
2022/01/04 13:09:56;;;;;;;1.52;1.27;;;;;;;;;;4932095;29;20428;-67
2022/01/04 13:12:35;;;;;;;3.20;1.50;;;;;;;;;;4920043;29;20055;-67
2022/01/04 13:15:04;;;;;;;2.47;1.67;;;;;;;;;;4919400;29;20111;-70
2022/01/04 13:17:31;;;;;;;5.95;2.08;;;;;;;;;;4918569;29;20518;-65
2022/01/04 13:19:58;;;;;;;2.53;1.70;;;;;;;;;;4923411;29;20052;-66
2022/01/04 13:22:27;;;;;;;3.83;2.03;;;;;;;;;;4918040;29;20055;-67
2022/01/04 13:25:00;;;;;;;2.65;1.88;;;;;;;;;;4922180;29;20044;-68
2022/01/04 13:27:43;;;;;;;4.88;2.42;;;;;;;;;;4919133;29;20476;-67
2022/01/04 13:30:11;;;;;;;11.75;6.40;;;;;;;;;;4917952;29;20496;-67
2022/01/04 13:32:45;;;;;;;5.25;2.90;;;;;;;;;;4924961;29;20402;-67
2022/01/04 13:35:15;;;;;;;4.30;2.45;;;;;;;;;;4917891;29;20119;-67
2022/01/04 13:37:42;;;;;;;2.75;2.15;;;;;;;;;;4920990;29;20048;-66
2022/01/04 13:40:11;;;;;;;4.65;1.90;;;;;;;;;;4927889;29;20110;-68
2022/01/04 13:42:43;;;;;;;3.78;1.80;;;;;;;;;;4922406;29;20056;-67
2022/01/04 13:45:21;;;;;;;3.97;2.05;;;;;;;;;;4923658;29;20475;-67
2022/01/04 13:47:59;;;;;;;7.63;2.03;;;;;;;;;;4922696;29;20059;-67
2022/01/04 13:50:33;;;;;;;3.78;2.20;;;;;;;;;;4918055;29;20052;-67
2022/01/04 13:53:01;;;;;;;2.45;1.95;;;;;;;;;;4926055;29;20051;-66
2022/01/04 13:55:52;;;;;;;4.25;1.77;;;;;;;;;;4928519;29;20126;-67
2022/01/04 13:58:35;;;;;;;2.97;1.45;;;;;;;;;;4934524;29;20051;-67
2022/01/04 14:01:14;;;;;;;;;;;;;;;;;;4934895;29;20528;-67
2022/01/04 14:03:41;;;;;;;1.30;0.75;;;;;;;;;;4931337;29;20271;-67
2022/01/04 14:06:27;;;;;;;0.73;0.40;;;;;;;;;;4932709;29;20561;-66
2022/01/04 14:08:53;;;;;;;2.05;0.70;;;;;;;;;;4938617;29;20078;-66
2022/01/04 14:11:24;;;;;;;0.65;0.43;;;;;;;;;;4933252;29;20047;-67
2022/01/04 14:13:51;;;;;;;2.63;0.60;;;;;;;;;;4933990;29;20051;-67
2022/01/04 14:16:19;;;;;;;1.60;0.50;;;;;;;;;;4935474;29;20422;-67
2022/01/04 14:19:03;;;;;;;1.40;0.50;;;;;;;;;;4934635;28;20052;-66
2022/01/04 14:21:41;;;;;;;0.98;0.63;;;;;;;;;;4937893;28;20047;-66
2022/01/04 14:24:29;;;;;;;1.35;0.93;;;;;;;;;;4940828;29;20113;-67
2022/01/04 14:27:20;;;;;;;2.25;0.90;;;;;;;;;;4936285;29;20079;-66
2022/01/04 14:30:04;;;;;;;0.73;0.73;;;;;;;;;;4925613;29;20056;-68
2022/01/04 14:32:32;;;;;;;1.55;0.77;;;;;;;;;;4922240;29;20516;-65
2022/01/04 14:35:10;;;;;;;1.58;1.20;;;;;;;;;;4926183;29;20051;-67
2022/01/04 14:37:39;;;;;;;1.65;0.95;;;;;;;;;;4923018;29;20079;-67
2022/01/04 14:40:08;;;;;;;1.80;1.02;;;;;;;;;;4923659;28;20078;-66
2022/01/04 14:42:35;;;;;;;1.30;1.13;;;;;;;;;;4921199;29;20141;-66
2022/01/04 14:45:06;;;;;;;1.30;1.20;;;;;;;;;;4922131;29;20052;-66
2022/01/04 14:47:32;;;;;;;2.22;1.80;;;;;;;;;;4924592;29;20090;-66
2022/01/04 14:49:59;;;;;;;2.53;1.77;;;;;;;;;;4924670;29;20051;-66
2022/01/04 14:52:26;;;;;;;1.63;1.50;;;;;;;;;;4922440;29;20099;-66
2022/01/04 14:54:53;;;;;;;2.13;1.80;;;;;;;;;;4921784;29;20047;-67
2022/01/04 14:57:23;;;;;;;1.50;1.40;;;;;;;;;;4920987;29;20059;-67
2022/01/04 14:59:51;;;;;;;2.75;1.38;;;;;;;;;;4935886;29;20517;-67
2022/01/04 15:02:18;;;;;;;2.58;1.98;;;;;;;;;;4936255;28;20051;-67
2022/01/04 15:04:45;;;;;;;1.50;1.40;;;;;;;;;;4923072;29;20055;-67